createdAt,value
2019-05-09T00:00:34.298Z,81.56
2019-05-09T00:04:08.601Z,80.92
2019-05-09T00:07:43.802Z,81.72
2019-05-09T00:11:17.748Z,80.97
2019-05-09T00:14:53.992Z,81.44
2019-05-09T00:18:30.087Z,81.87
2019-05-09T00:22:03.657Z,82.16
2019-05-09T00:25:39.809Z,82.23
2019-05-09T00:37:13.530Z,81.49
2019-05-09T00:41:03.714Z,81.97
2019-05-09T00:44:38.256Z,81.93
2019-05-09T00:48:29.347Z,81.82
2019-05-09T00:52:08.851Z,81.65
2019-05-09T00:55:47.867Z,81.32
2019-05-09T00:59:41.142Z,81.59
2019-05-09T01:03:06.042Z,81.43
2019-05-09T01:06:37.675Z,81.72
2019-05-09T01:10:18.075Z,81.93
2019-05-09T01:13:51.555Z,81.50
2019-05-09T01:17:34.526Z,81.57
2019-05-09T01:21:09.143Z,81.22
2019-05-09T01:24:49.008Z,81.06
2019-05-09T01:28:35.127Z,81.20
2019-05-09T01:31:59.598Z,81.32
2019-05-09T01:35:39.079Z,80.82
2019-05-09T01:39:21.092Z,80.87
2019-05-09T01:42:49.379Z,80.88
2019-05-09T01:46:20.772Z,80.85
2019-05-09T01:49:50.066Z,80.67
2019-05-09T01:53:33.301Z,80.50
2019-05-09T01:57:03.297Z,80.03
2019-05-09T02:00:33.827Z,80.84
2019-05-09T02:04:07.292Z,80.66
2019-05-09T02:07:34.902Z,80.68
2019-05-09T02:11:00.981Z,80.34
2019-05-09T02:14:43.572Z,80.45
2019-05-09T02:18:19.736Z,80.27
2019-05-09T02:21:46.708Z,80.68
2019-05-09T02:25:13.771Z,80.63
2019-05-09T02:28:42.728Z,80.78
2019-05-09T02:32:10.162Z,81.37
2019-05-09T02:35:50.967Z,81.85
2019-05-09T02:39:12.995Z,81.99
2019-05-09T02:42:43.100Z,82.15
2019-05-09T02:46:10.833Z,81.68
2019-05-09T02:49:39.069Z,81.91
2019-05-09T02:53:09.318Z,82.22
2019-05-09T02:56:35.116Z,81.59
2019-05-09T03:00:00.597Z,81.47
2019-05-09T03:03:28.986Z,81.07
2019-05-09T03:06:54.823Z,81.28
2019-05-09T03:10:22.022Z,81.79
2019-05-09T03:13:49.609Z,81.42
2019-05-09T03:17:15.063Z,81.74
2019-05-09T03:20:54.186Z,81.64
2019-05-09T03:24:19.764Z,81.98
2019-05-09T03:28:02.737Z,82.10
2019-05-09T03:31:30.284Z,81.85
2019-05-09T03:34:57.942Z,81.51
2019-05-09T03:38:23.147Z,81.89
2019-05-09T03:41:48.942Z,81.78
2019-05-09T03:45:18.228Z,81.93
2019-05-09T03:48:48.216Z,81.88
2019-05-09T03:52:14.772Z,81.88
2019-05-09T03:55:40.383Z,82.21
2019-05-09T03:59:08.158Z,81.31
2019-05-09T04:02:33.310Z,81.16
2019-05-09T04:06:02.868Z,81.23
2019-05-09T04:09:27.412Z,81.25
2019-05-09T04:12:56.530Z,81.32
2019-05-09T04:16:20.362Z,81.08
2019-05-09T04:19:47.886Z,81.23
2019-05-09T04:23:13.238Z,81.18
2019-05-09T04:26:49.288Z,80.49
2019-05-09T04:30:15.081Z,80.22
2019-05-09T04:33:40.671Z,80.29
2019-05-09T04:37:08.063Z,80.29
2019-05-09T04:40:37.680Z,80.52
2019-05-09T04:44:05.013Z,80.87
2019-05-09T04:47:28.176Z,80.57
2019-05-09T04:50:56.551Z,80.53
2019-05-09T04:54:21.094Z,80.82
2019-05-09T04:57:48.594Z,80.98
2019-05-09T05:01:31.750Z,80.97
2019-05-09T05:04:59.320Z,80.59
2019-05-09T05:08:24.898Z,80.58
2019-05-09T05:11:50.511Z,81.05
2019-05-09T05:15:17.999Z,81.25
2019-05-09T05:18:43.612Z,80.77
2019-05-09T05:22:10.853Z,81.06
2019-05-09T05:25:38.256Z,80.91
2019-05-09T05:29:03.983Z,80.81
2019-05-09T05:32:48.821Z,80.94
2019-05-09T05:36:18.151Z,81.03
2019-05-09T05:39:43.774Z,81.39
2019-05-09T05:43:09.376Z,81.00
2019-05-09T05:46:40.355Z,80.65
2019-05-09T05:50:08.351Z,80.36
2019-05-09T05:53:38.043Z,80.12
2019-05-09T05:57:03.691Z,79.91
2019-05-09T06:00:29.290Z,79.10
2019-05-09T06:03:54.937Z,79.33
2019-05-09T06:07:20.508Z,79.71
2019-05-09T06:10:48.418Z,79.37
2019-05-09T06:14:14.941Z,79.46
2019-05-09T06:17:40.525Z,79.57
2019-05-09T06:21:08.836Z,79.28
2019-05-09T06:24:35.523Z,78.61
2019-05-09T06:28:01.234Z,78.74
2019-05-09T06:31:28.446Z,78.29
2019-05-09T06:34:54.871Z,78.61
2019-05-09T06:38:20.465Z,78.23
2019-05-09T06:41:48.139Z,78.32
2019-05-09T06:45:19.616Z,78.32
2019-05-09T06:48:47.823Z,78.31
2019-05-09T06:52:13.052Z,78.20
2019-05-09T06:55:38.731Z,78.11
2019-05-09T06:59:04.305Z,77.62
2019-05-09T07:02:47.906Z,77.41
2019-05-09T07:06:20.971Z,77.33
2019-05-09T07:09:51.365Z,77.67
2019-05-09T07:13:27.075Z,77.12
2019-05-09T07:16:51.560Z,77.03
2019-05-09T07:20:18.358Z,76.60
2019-05-09T07:23:47.857Z,76.93
2019-05-09T07:27:13.654Z,76.77
2019-05-09T07:30:41.470Z,76.60
2019-05-09T07:34:11.841Z,76.47
2019-05-09T07:37:38.027Z,76.45
2019-05-09T07:41:04.175Z,77.12
2019-05-09T07:44:45.439Z,76.79
2019-05-09T07:47:58.881Z,77.02
2019-05-09T07:51:27.515Z,76.63
2019-05-09T07:54:54.226Z,76.65
2019-05-09T07:58:20.123Z,76.90
2019-05-09T08:01:48.733Z,77.09
2019-05-09T08:05:19.447Z,77.13
2019-05-09T08:08:47.689Z,77.07
2019-05-09T08:12:14.168Z,77.03
2019-05-09T08:15:40.679Z,77.00
2019-05-09T08:19:07.891Z,76.02
2019-05-09T08:22:34.082Z,75.37
2019-05-09T08:26:04.304Z,74.23
2019-05-09T08:29:29.409Z,74.06
2019-05-09T08:32:55.295Z,73.58
2019-05-09T08:36:21.561Z,73.64
2019-05-09T08:39:48.440Z,73.26
2019-05-09T08:43:14.441Z,72.57
2019-05-09T08:46:40.164Z,72.75
2019-05-09T08:50:17.755Z,72.76
2019-05-09T08:53:43.417Z,71.66
2019-05-09T08:57:09.064Z,70.30
2019-05-09T09:00:35.622Z,70.31
2019-05-09T09:04:01.218Z,69.85
2019-05-09T09:07:29.645Z,70.53
2019-05-09T09:10:57.666Z,69.41
2019-05-09T09:14:22.535Z,69.59
2019-05-09T09:17:49.262Z,69.58
2019-05-09T09:21:14.957Z,69.26
2019-05-09T09:24:42.601Z,69.41
2019-05-09T09:28:09.004Z,70.10
2019-05-09T09:31:37.709Z,69.51
2019-05-09T09:35:03.073Z,69.68
2019-05-09T09:38:28.709Z,69.37
2019-05-09T09:41:54.297Z,68.80
2019-05-09T09:45:20.023Z,68.68
2019-05-09T09:48:47.821Z,70.16
2019-05-09T09:52:12.925Z,70.11
2019-05-09T09:55:38.854Z,68.05
2019-05-09T09:59:23.854Z,69.52
2019-05-09T10:02:49.475Z,70.16
2019-05-09T10:06:16.080Z,71.11
2019-05-09T10:09:41.694Z,70.89
2019-05-09T10:13:10.509Z,70.65
2019-05-09T10:16:38.856Z,70.38
2019-05-09T10:20:09.279Z,69.26
2019-05-09T10:23:37.856Z,69.18
2019-05-09T10:27:23.176Z,69.78
2019-05-09T10:31:28.420Z,69.29
2019-05-09T10:34:58.002Z,70.12
2019-05-09T10:42:50.881Z,70.67
2019-05-09T10:46:52.170Z,71.19
2019-05-09T10:50:04.908Z,70.49
2019-05-09T10:53:31.657Z,71.04
2019-05-09T10:56:58.834Z,68.59
2019-05-09T11:00:24.620Z,66.77
2019-05-09T11:03:50.598Z,65.00
2019-05-09T11:07:18.219Z,62.75
2019-05-09T11:10:43.980Z,63.18
2019-05-09T11:14:09.809Z,63.53
2019-05-09T11:17:35.438Z,61.88
2019-05-09T11:21:01.074Z,61.33
2019-05-09T11:24:41.461Z,61.53
2019-05-09T11:28:06.946Z,60.82
2019-05-09T11:31:21.750Z,60.75
2019-05-09T11:34:48.589Z,58.63
2019-05-09T11:38:14.420Z,61.23
2019-05-09T11:41:42.056Z,63.36
2019-05-09T11:45:09.013Z,65.88
2019-05-09T11:48:34.623Z,68.13
2019-05-09T11:52:00.216Z,67.84
2019-05-09T11:55:34.985Z,65.82
2019-05-09T11:58:53.136Z,65.78
2019-05-09T12:02:18.764Z,63.48
2019-05-09T12:05:44.417Z,61.94
2019-05-09T12:09:14.507Z,62.63
2019-05-09T12:12:39.135Z,62.21
2019-05-09T12:16:06.239Z,60.15
2019-05-09T12:19:31.844Z,57.54
2019-05-09T12:22:58.447Z,57.97
2019-05-09T12:26:24.359Z,57.14
2019-05-09T12:29:50.473Z,57.95
2019-05-09T12:33:18.652Z,58.03
2019-05-09T12:36:43.530Z,57.36
2019-05-09T12:40:09.637Z,56.79
2019-05-09T12:43:35.259Z,59.45
2019-05-09T12:47:01.678Z,70.32
2019-05-09T12:50:29.462Z,76.93
2019-05-09T12:53:57.750Z,76.56
2019-05-09T12:57:23.910Z,78.46
2019-05-09T13:00:51.979Z,76.89
2019-05-09T13:04:18.932Z,75.65
2019-05-09T13:07:45.089Z,74.29
2019-05-09T13:11:11.075Z,72.93
2019-05-09T13:14:37.973Z,69.59
2019-05-09T13:18:20.246Z,72.06
2019-05-09T13:21:36.121Z,72.82
2019-05-09T13:25:03.634Z,71.58
2019-05-09T13:28:30.388Z,72.22
2019-05-09T13:31:57.993Z,73.23
2019-05-09T13:35:24.531Z,77.11
2019-05-09T13:43:03.213Z,84.86
2019-05-09T13:46:38.892Z,86.26
2019-05-09T13:50:29.868Z,87.58
2019-05-09T14:40:33.399Z,73.74
2019-05-09T14:43:59.868Z,73.12
2019-05-09T14:47:27.761Z,69.57
2019-05-09T14:50:53.006Z,61.06
2019-05-09T14:54:18.795Z,64.35
2019-05-09T14:57:44.383Z,64.96
2019-05-09T15:01:10.104Z,59.23
2019-05-09T15:04:35.770Z,58.82
2019-05-09T15:08:01.390Z,56.07
2019-05-09T15:11:28.200Z,59.08
2019-05-09T15:14:54.119Z,62.04
2019-05-09T15:18:19.709Z,62.89
2019-05-09T15:21:48.465Z,63.48
2019-05-09T15:25:13.849Z,62.14
2019-05-09T15:28:39.440Z,57.76
2019-05-09T15:32:11.235Z,56.84
2019-05-09T15:35:32.476Z,59.36
2019-05-09T15:38:59.159Z,57.63
2019-05-09T15:42:24.876Z,53.24
2019-05-09T15:45:52.115Z,52.10
2019-05-09T15:49:18.425Z,56.58
2019-05-09T15:52:44.072Z,59.68
2019-05-09T15:56:09.837Z,60.34
2019-05-09T15:59:35.429Z,61.69
2019-05-09T16:03:01.151Z,62.98
2019-05-09T16:06:32.988Z,62.00
2019-05-09T16:09:54.838Z,64.46
2019-05-09T16:13:20.440Z,64.47
2019-05-09T16:16:47.802Z,64.89
2019-05-09T16:20:14.905Z,87.04
2019-05-09T16:23:41.113Z,89.86
2019-05-09T16:27:08.495Z,90.78
2019-05-09T16:30:34.354Z,91.41
2019-05-09T16:33:59.961Z,92.04
2019-05-09T16:37:28.395Z,92.48
2019-05-09T16:40:54.398Z,92.78
2019-05-09T16:44:20.257Z,93.03
2019-05-09T16:47:48.251Z,93.22
2019-05-09T16:51:13.165Z,93.32
2019-05-09T16:54:40.578Z,93.33
2019-05-09T16:58:08.484Z,93.20
2019-05-09T17:01:35.076Z,92.69
2019-05-09T17:05:00.667Z,83.91
2019-05-09T17:08:28.201Z,81.93
2019-05-09T17:11:53.588Z,79.43
2019-05-09T17:15:20.964Z,78.31
2019-05-09T17:18:48.622Z,78.54
2019-05-09T17:22:15.709Z,75.51
2019-05-09T17:25:42.208Z,77.31
2019-05-09T17:29:07.865Z,78.31
2019-05-09T17:32:34.009Z,78.30
2019-05-09T17:35:59.655Z,78.14
2019-05-09T17:39:27.766Z,77.78
2019-05-09T17:42:53.920Z,78.09
2019-05-09T17:46:19.701Z,79.84
2019-05-09T17:49:45.325Z,80.16
2019-05-09T17:53:10.945Z,79.88
2019-05-09T17:56:37.924Z,78.11
2019-05-09T18:00:08.143Z,78.38
2019-05-09T18:03:33.293Z,79.64
2019-05-09T18:06:58.925Z,79.67
2019-05-09T18:10:24.561Z,79.49
2019-05-09T18:13:50.181Z,78.95
2019-05-09T18:17:17.848Z,79.10
2019-05-09T18:20:44.013Z,78.32
2019-05-09T18:24:09.642Z,79.50
2019-05-09T18:27:37.754Z,78.64
2019-05-09T18:31:02.924Z,79.15
2019-05-09T18:34:28.733Z,79.34
2019-05-09T18:37:55.564Z,79.91
2019-05-09T18:41:21.509Z,79.53
2019-05-09T18:44:48.825Z,80.15
2019-05-09T18:48:14.486Z,79.87
2019-05-09T18:51:40.515Z,81.30
2019-05-09T18:55:10.867Z,79.85
2019-05-09T18:58:38.560Z,80.01
2019-05-09T19:02:03.881Z,80.41
2019-05-09T19:05:29.444Z,79.44
2019-05-09T19:08:55.057Z,79.54
2019-05-09T19:12:20.659Z,80.64
2019-05-09T19:16:06.088Z,80.56
2019-05-09T19:19:42.346Z,80.79
2019-05-09T19:23:08.273Z,79.54
2019-05-09T19:26:36.406Z,79.94
2019-05-09T19:30:02.028Z,79.75
2019-05-09T19:33:28.210Z,80.42
2019-05-09T19:36:53.790Z,78.63
2019-05-09T19:40:20.632Z,78.55
2019-05-09T19:43:48.093Z,79.79
2019-05-09T19:47:13.707Z,79.32
2019-05-09T19:50:39.301Z,79.26
2019-05-09T19:54:05.184Z,78.19
2019-05-09T19:57:30.845Z,78.18
2019-05-09T20:00:56.794Z,79.65
2019-05-09T20:04:22.468Z,79.13
2019-05-09T20:07:48.083Z,78.46
2019-05-09T20:11:13.428Z,78.60
2019-05-09T20:14:40.734Z,78.98
2019-05-09T20:18:06.308Z,78.58
2019-05-09T20:21:31.906Z,78.37
2019-05-09T20:24:57.523Z,79.18
2019-05-09T20:28:23.187Z,79.16
2019-05-09T20:31:49.552Z,78.27
2019-05-09T20:35:15.311Z,77.76
2019-05-09T20:38:41.159Z,79.46
2019-05-09T20:42:07.080Z,78.54
2019-05-09T20:45:33.001Z,78.62
2019-05-09T20:49:00.762Z,78.29
2019-05-09T20:52:26.543Z,79.03
2019-05-09T20:55:52.351Z,79.31
2019-05-09T20:59:18.370Z,79.50
2019-05-09T21:02:44.167Z,79.48
2019-05-09T21:06:11.339Z,79.71
2019-05-09T21:09:37.201Z,80.15
2019-05-09T21:13:03.093Z,80.70
2019-05-09T21:16:29.039Z,79.48
2019-05-09T21:19:54.914Z,79.53
2019-05-09T21:23:24.917Z,79.51
2019-05-09T21:26:48.328Z,79.94
2019-05-09T21:30:15.770Z,79.58
2019-05-09T21:33:41.587Z,79.98
2019-05-09T21:37:08.261Z,79.64
2019-05-09T21:40:33.921Z,79.25
2019-05-09T21:43:59.568Z,79.83
2019-05-09T21:47:25.177Z,80.09
2019-05-09T21:50:50.949Z,80.68
2019-05-09T21:54:16.564Z,81.34
2019-05-09T21:57:42.598Z,81.15
2019-05-09T22:01:14.000Z,81.04
2019-05-09T22:04:39.812Z,81.49
2019-05-09T22:08:05.640Z,81.40
2019-05-09T22:11:32.386Z,80.66
2019-05-09T22:14:57.991Z,80.79
2019-05-09T22:18:23.641Z,80.49
2019-05-09T22:21:49.247Z,80.27
2019-05-09T22:25:16.330Z,80.40
2019-05-09T22:28:42.316Z,79.87
2019-05-09T22:32:08.025Z,79.17
2019-05-09T22:35:33.622Z,78.44
2019-05-09T22:38:59.248Z,79.00
2019-05-09T22:42:24.833Z,78.05
2019-05-09T22:45:50.548Z,78.53
2019-05-09T22:49:16.210Z,78.85
2019-05-09T22:52:41.797Z,79.54
2019-05-09T22:56:07.448Z,79.49
2019-05-09T22:59:33.042Z,79.99
2019-05-09T23:02:58.682Z,80.16
2019-05-09T23:06:24.363Z,79.87
2019-05-09T23:09:50.028Z,79.82
2019-05-09T23:13:15.675Z,80.52
2019-05-09T23:16:41.768Z,79.30
2019-05-09T23:20:10.565Z,79.54
2019-05-09T23:23:37.818Z,79.77
2019-05-09T23:27:03.483Z,80.06
2019-05-09T23:30:29.082Z,80.12
2019-05-09T23:33:54.982Z,80.80
2019-05-09T23:37:20.674Z,81.63
2019-05-09T23:40:46.309Z,81.41
2019-05-09T23:44:11.927Z,81.19
2019-05-09T23:47:37.517Z,80.77
2019-05-09T23:51:03.163Z,81.03
2019-05-09T23:54:48.609Z,81.08
2019-05-09T23:58:34.119Z,81.14
